KAVX/AVX METAR and TAF weather

Enter ICAO airport designator
Station Type Date Time Source
KAVX METAR 2024/06/15 23:51 UTC NOAA

KAVX 152351Z AUTO VRB04KT 10SM CLR 25/11 A2983 RMK AO2 SLP075 T02500106 10272 20239 56013


Station Type Date Time Source
KAVX Decoded METAR 2024/06/15 23:51 UTC NOAA

AVALON CATALINA AIRPORT, CA, United States (KAVX) 33-24N 118-25W 482M
Jun 15, 2024 - 07:51 PM EDT / 2024.06.15 2351 UTC
Wind: Variable at 5 MPH (4 KT):0
Visibility: 10 mile(s):0
Sky conditions: clear
Temperature: 77.0 F (25.0 C)
Dew Point: 51.1 F (10.6 C)
Relative Humidity: 40%
Pressure (altimeter): 29.83 in. Hg (1010 hPa)
Pressure tendency: 0.04 inches (1.3 hPa) lower than three hours ago
ob: KAVX 152351Z AUTO VRB04KT 10SM CLR 25/11 A2983 RMK AO2 SLP075 T02500106 10272 20239 56013
cycle: 0

Station Type Date Time Source
KAVX TAF UTC NOAA

Error!

Example: see airport list